Flight Track Log - Related Links

Times and Time Zones

All times are in EDT time to prevent confusion due to time zone crossing. See the CSZ9938 flight status page for this flight to view local times or setup timezone preferences in your user account.

Time Position Orientation Groundspeed Altitude Reporting Facility
EDT Latitude Longitude Course Direction KTS MPH feet Rate Location/Type
Fri 09:59:00 PM 29.3705 115.9273 North  Level Estimated
Fri 10:00:00 PM 29.4715 115.9327 North  Level Estimated
Fri 10:01:00 PM 29.5726 115.9382 North  Level Estimated
Fri 10:02:00 PM 29.6737 115.9437 North  Level Estimated
Fri 10:03:00 PM 29.7748 115.9493 North  Level Estimated
Fri 10:04:00 PM 29.8759 115.9548 North  Level Estimated
Fri 10:05:00 PM 29.9770 115.9603 North  Level Estimated
Fri 10:06:00 PM 30.0781 115.9659 North  Level Estimated
Fri 10:07:00 PM 30.1792 115.9714 North  Level Estimated
Fri 10:08:00 PM 30.2803 115.9770 North  Level Estimated
Fri 10:09:00 PM 30.3814 115.9826 North  Level Estimated
Fri 10:10:00 PM 30.4825 115.9882 North  Level Estimated
Fri 10:11:00 PM 30.5835 115.9938 North  Level Estimated
Fri 10:12:00 PM 30.6846 115.9994 North  Level Estimated
Fri 10:13:00 PM 30.7857 116.0051 North  Level Estimated
Fri 10:14:00 PM 30.8868 116.0107 North  Level Estimated
Fri 10:15:00 PM 30.9879 116.0163 North  Level Estimated
Fri 10:16:00 PM 31.0890 116.0220 North  Level Estimated
Fri 10:17:00 PM 31.1901 116.0277 North  Level Estimated
Fri 10:18:00 PM 31.2912 116.0334 North  Level Estimated
Fri 10:19:00 PM 31.3923 116.0391 North  Level Estimated
Fri 10:20:00 PM 31.4933 116.0448 North  Level Estimated
Fri 10:21:00 PM 31.5944 116.0505 North  Level Estimated
Fri 10:22:00 PM 31.6955 116.0563 North  Level Estimated
Fri 10:23:00 PM 31.7966 116.0620 North  Level Estimated
Fri 10:24:00 PM 31.8977 116.0678 North  Level Estimated
Fri 10:25:00 PM 31.9988 116.0736 North  Level Estimated
Fri 10:26:00 PM 32.0999 116.0794 North  Level Estimated
Fri 10:27:00 PM 32.2010 116.0852 North  Level Estimated
Fri 10:28:00 PM 32.3020 116.0910 North  Level Estimated
Fri 10:29:00 PM 32.4031 116.0968 North  Level Estimated
Fri 10:30:00 PM 32.5042 116.1027 North  Level Estimated
Fri 10:31:00 PM 32.6053 116.1085 North  Level Estimated
Fri 10:32:00 PM 32.7063 116.1144 North  Level Estimated
Fri 10:33:00 PM 32.8074 116.1203 North  Level Estimated
Fri 10:34:00 PM 32.9085 116.1262 North  Level Estimated
Fri 10:35:00 PM 33.0096 116.1321 North  Level Estimated
Fri 10:36:00 PM 33.1107 116.1380 North  Level Estimated
Fri 10:37:00 PM 33.2118 116.1439 North  Level Estimated
Fri 10:38:00 PM 33.3128 116.1499 North  Level Estimated
Fri 10:39:00 PM 33.4139 116.1559 North  Level Estimated
Fri 10:40:00 PM 33.5150 116.1618 North  Level Estimated
Fri 10:41:00 PM 33.6161 116.1678 North  Level Estimated
Fri 10:42:00 PM 33.7172 116.1738 North  Level Estimated
Fri 10:43:00 PM 33.8182 116.1798 North  Level Estimated
Fri 10:44:00 PM 33.9193 116.1859 North  Level Estimated
Fri 10:45:00 PM 34.0204 116.1919 North  Level Estimated
Fri 10:46:00 PM 34.1215 116.1980 North  Level Estimated
Fri 10:47:00 PM 34.2225 116.2041 North  Level Estimated
Fri 10:48:00 PM 34.3236 116.2102 North  Level Estimated
Fri 10:49:00 PM 34.4247 116.2163 North  Level Estimated
Fri 10:50:00 PM 34.5258 116.2224 North  Level Estimated
Fri 10:51:00 PM 34.6269 116.2285 North  Level Estimated
Fri 10:52:00 PM 34.7280 116.2347 North  Level Estimated
Fri 10:53:00 PM 34.8290 116.2409 North  Level Estimated
Fri 10:54:00 PM 34.9301 116.2470 North  Level Estimated
Fri 10:55:00 PM 35.0312 116.2532 North  Level Estimated
Fri 10:56:00 PM 35.1323 116.2594 North  Level Estimated
Fri 10:57:00 PM 35.2333 116.2657 North  Level Estimated
Fri 10:58:00 PM 35.3344 116.2719 North  Level Estimated
Fri 10:59:00 PM 35.4355 116.2782 North  Level Estimated
Fri 11:00:00 PM 35.5366 116.2844 North  Level Estimated
Fri 11:01:00 PM 35.6376 116.2907 North  Level Estimated
Fri 11:02:00 PM 35.7387 116.2971 North  Level Estimated
Fri 11:03:00 PM 35.8398 116.3034 North  Level Estimated
Fri 11:04:00 PM 35.9408 116.3097 North  Level Estimated
Fri 11:05:00 PM 36.0419 116.3161 North  Level Estimated
Fri 11:06:00 PM 36.1430 116.3224 North  Level Estimated
Fri 11:07:00 PM 36.2441 116.3288 North  Level Estimated
Fri 11:08:00 PM 36.3451 116.3352 North  Level Estimated
Fri 11:09:00 PM 36.4462 116.3417 North  Level Estimated
Fri 11:10:00 PM 36.5473 116.3481 North  Level Estimated
Fri 11:11:00 PM 36.6483 116.3546 North  Level Estimated
Fri 11:12:00 PM 36.7494 116.3610 North  Level Estimated
Fri 11:13:00 PM 36.8505 116.3675 North  Level Estimated
Fri 11:14:00 PM 36.9515 116.3740 North  Level Estimated
Fri 11:15:00 PM 37.0526 116.3805 North  Level Estimated
Fri 11:16:00 PM 37.1537 116.3871 North  Level Estimated
Fri 11:17:00 PM 37.2548 116.3936 North  Level Estimated
Fri 11:18:00 PM 37.3558 116.4002 North  Level Estimated
Fri 11:19:00 PM 37.4569 116.4068 North  Level Estimated
Fri 11:20:00 PM 37.5580 116.4134 North  Level Estimated
Fri 11:21:00 PM 37.6590 116.4201 North  Level Estimated
Fri 11:22:00 PM 37.7601 116.4267 North  Level Estimated
Fri 11:23:00 PM 37.8612 116.4334 North  Level Estimated
Fri 11:24:00 PM 37.9622 116.4400 North  Level Estimated
Fri 11:25:00 PM 38.0633 116.4467 North  Level Estimated
Fri 11:26:00 PM 38.1644 116.4535 North  Level Estimated
Fri 11:27:00 PM 38.2655 116.4602 North  Level Estimated
Fri 11:28:00 PM 38.3665 116.4670 North  Level Estimated
Fri 11:29:00 PM 38.4676 116.4737 North  Level Estimated
Fri 11:30:00 PM 38.5686 116.4806 North  Level Estimated
Fri 11:31:00 PM 38.6697 116.4874 North  Level Estimated
Fri 11:32:00 PM 38.7708 116.4942 North  Level Estimated
Fri 11:33:00 PM 38.8718 116.5011 North  Level Estimated
Fri 11:34:00 PM 38.9729 116.5079 North  Level Estimated
Fri 11:35:00 PM 39.0739 116.5148 North  Level Estimated
Fri 11:36:00 PM 39.1750 116.5217 North  Level Estimated
Fri 11:37:00 PM 39.2761 116.5286 North  Level Estimated
Fri 11:38:00 PM 39.3771 116.5356 North  Level Estimated
Fri 11:39:00 PM 39.4782 116.5426 North  Level Estimated
Fri 11:40:00 PM 39.5792 116.5496 North  Level Estimated
Fri 11:41:00 PM 39.6803 116.5566 North  Level Estimated
Fri 11:42:00 PM 39.7814 116.5636 North  Level Estimated
Fri 11:43:00 PM 39.8824 116.5707 North  Level Estimated
Fri 11:44:00 PM 39.9835 116.5778 North  Level Estimated
Fri 11:45:00 PM 40.0801 116.5846 North  Level Estimated
Fri 11:46:00 PM 40.0801 116.5846 288° West  Level Estimated
Fri 11:47:00 PM 40.0801 116.5846 288° West  Level Estimated
Fri 11:48:00 PM 40.0801 116.5846 288° West  Level Estimated
Fri 11:49:00 PM 40.0801 116.5846 288° West  Level Estimated
Fri 11:50:00 PM 40.0801 116.5846 288° West  Level Estimated
Fri 11:51:00 PM 40.0801 116.5846 288° West  Level Estimated
Fri 11:52:00 PM 40.0801 116.5846 288° West  Level Estimated
Fri 11:53:00 PM 40.0801 116.5846 288° West  Level Estimated
Fri 11:54:00 PM 40.0801 116.5846 288° West  Level Estimated
Fri 11:55:00 PM 40.0801 116.5846 288° West  Level Estimated
Fri 11:56:00 PM 40.0801 116.5846 288° West  Level Estimated
Fri 11:57:00 PM 40.0801 116.5846 288° West  Level Estimated
Fri 11:58:00 PM 40.0801 116.5846 288° West  Level Estimated
Fri 11:59:00 PM 40.0801 116.5846 288° West  Level Estimated
Sat 12:00:00 AM 40.0801 116.5846 288° West  Level Estimated
Sat 12:01:00 AM 40.0801 116.5846 288° West  Level Estimated

Login

Don't have an account? Register now (free) for customized features, flight alerts, and more!